Time;durP1;ratioP1;P1;durP2;ratioP2;P2;SDS_P1;SDS_P2;PMS_P1;PMS_P2;Temp;Humidity;BMP_temperature;BMP_pressure;BME280_temperature;BME280_humidity;BME280_pressure;Samples;Min_cycle;Max_cycle;Signal;HPM_P1;HPM_P2
2022/03/29 00:02:12;;;;;;;16.48;8.70;;;;;;;;;;4944604;28;20035;-67
2022/03/29 00:04:37;;;;;;;13.52;8.25;;;;;;;;;;4944622;29;20122;-67
2022/03/29 00:07:03;;;;;;;12.35;8.25;;;;;;;;;;4944002;29;20116;-68
2022/03/29 00:09:28;;;;;;;17.48;8.73;;;;;;;;;;4944549;29;20503;-67
2022/03/29 00:11:54;;;;;;;18.00;8.88;;;;;;;;;;4943659;28;20039;-68
2022/03/29 00:14:19;;;;;;;14.93;8.35;;;;;;;;;;4944503;28;20558;-68
2022/03/29 00:16:45;;;;;;;16.42;8.07;;;;;;;;;;4944506;29;20073;-68
2022/03/29 00:19:10;;;;;;;19.58;8.45;;;;;;;;;;4944691;29;20038;-70
2022/03/29 00:21:36;;;;;;;17.88;9.02;;;;;;;;;;4943532;29;20743;-69
2022/03/29 00:24:01;;;;;;;12.45;8.05;;;;;;;;;;4944198;28;20035;-69
2022/03/29 00:26:27;;;;;;;17.25;8.25;;;;;;;;;;4944430;29;20515;-68
2022/03/29 00:28:53;;;;;;;15.10;8.68;;;;;;;;;;4944579;29;20038;-68
2022/03/29 00:31:21;;;;;;;16.30;8.40;;;;;;;;;;4944069;28;20039;-68
2022/03/29 00:33:48;;;;;;;17.20;8.25;;;;;;;;;;4943634;28;20043;-68
2022/03/29 00:36:14;;;;;;;13.82;8.18;;;;;;;;;;4944334;28;20031;-68
2022/03/29 00:38:41;;;;;;;14.70;8.30;;;;;;;;;;4944597;29;20122;-68
2022/03/29 00:41:06;;;;;;;17.85;8.90;;;;;;;;;;4926830;29;20045;-68
2022/03/29 00:43:32;;;;;;;18.92;8.77;;;;;;;;;;4943773;29;20826;-68
2022/03/29 00:45:58;;;;;;;18.15;9.07;;;;;;;;;;4943725;28;20560;-68
2022/03/29 00:48:23;;;;;;;16.45;9.02;;;;;;;;;;4927255;29;20414;-68
2022/03/29 00:50:50;;;;;;;17.75;9.98;;;;;;;;;;4943879;29;20116;-68
2022/03/29 00:53:17;;;;;;;17.88;11.65;;;;;;;;;;4943911;29;20050;-68
2022/03/29 00:55:43;;;;;;;18.83;10.13;;;;;;;;;;4943372;28;20039;-68
2022/03/29 00:58:11;;;;;;;14.35;8.32;;;;;;;;;;4943870;28;20122;-68
2022/03/29 01:00:38;;;;;;;15.85;8.40;;;;;;;;;;4943586;29;20035;-68
2022/03/29 01:03:04;;;;;;;17.90;9.25;;;;;;;;;;4943949;29;20039;-68
2022/03/29 01:05:31;;;;;;;23.55;11.07;;;;;;;;;;4942986;29;20492;-68
2022/03/29 01:07:57;;;;;;;18.45;8.73;;;;;;;;;;4943702;28;20067;-68
2022/03/29 01:10:24;;;;;;;13.98;8.50;;;;;;;;;;4943612;29;20045;-68
2022/03/29 01:12:56;;;;;;;15.35;9.38;;;;;;;;;;4943668;29;20415;-68
2022/03/29 01:15:26;;;;;;;17.52;10.00;;;;;;;;;;4943531;29;20043;-68
2022/03/29 01:17:53;;;;;;;14.68;9.38;;;;;;;;;;4942732;28;20035;-68
2022/03/29 01:20:21;;;;;;;16.25;8.43;;;;;;;;;;4939189;28;20035;-68
2022/03/29 01:22:48;;;;;;;16.10;8.60;;;;;;;;;;4943299;28;20039;-68
2022/03/29 01:25:24;;;;;;;17.00;8.02;;;;;;;;;;4943468;28;20034;-68
2022/03/29 01:27:52;;;;;;;12.40;8.18;;;;;;;;;;4942390;28;20054;-68
2022/03/29 01:30:20;;;;;;;14.80;9.07;;;;;;;;;;4943184;28;20090;-68
2022/03/29 01:32:50;;;;;;;15.48;8.85;;;;;;;;;;4943670;29;20031;-68
2022/03/29 01:35:17;;;;;;;14.80;8.95;;;;;;;;;;4941841;29;20034;-67
2022/03/29 01:37:43;;;;;;;15.00;9.05;;;;;;;;;;4943441;29;20050;-68
2022/03/29 01:40:17;;;;;;;18.02;9.02;;;;;;;;;;4942357;28;20027;-68
2022/03/29 01:42:56;;;;;;;16.42;8.57;;;;;;;;;;4942647;29;20047;-67
2022/03/29 01:45:24;;;;;;;14.32;7.70;;;;;;;;;;4942707;29;20035;-67
2022/03/29 01:47:50;;;;;;;17.10;8.30;;;;;;;;;;4943088;29;20043;-67
2022/03/29 01:50:15;;;;;;;13.68;8.35;;;;;;;;;;4942647;28;20053;-67
2022/03/29 01:52:45;;;;;;;16.00;8.93;;;;;;;;;;4943140;28;20035;-67
2022/03/29 01:55:12;;;;;;;18.73;8.98;;;;;;;;;;4942685;29;20071;-68
2022/03/29 01:57:38;;;;;;;17.15;9.57;;;;;;;;;;4943101;29;20050;-68
2022/03/29 02:02:53;;;;;;;13.43;7.82;;;;;;;;;;4942629;28;20035;-69
2022/03/29 02:05:20;;;;;;;18.58;8.98;;;;;;;;;;4942617;29;20027;-68
2022/03/29 02:07:45;;;;;;;16.52;8.35;;;;;;;;;;4945771;29;20095;-68
2022/03/29 02:10:15;;;;;;;16.58;8.50;;;;;;;;;;4949025;29;20031;-69
2022/03/29 02:12:41;;;;;;;12.20;7.93;;;;;;;;;;4944364;28;20039;-68
2022/03/29 02:15:07;;;;;;;14.82;8.05;;;;;;;;;;4942854;28;20035;-69
2022/03/29 02:17:32;;;;;;;18.05;8.73;;;;;;;;;;4942880;29;20039;-69
2022/03/29 02:19:58;;;;;;;20.10;9.60;;;;;;;;;;4943535;29;20039;-69
2022/03/29 02:22:23;;;;;;;13.60;8.95;;;;;;;;;;4942111;29;20039;-68
2022/03/29 02:24:49;;;;;;;18.25;8.65;;;;;;;;;;4942504;28;20425;-69
2022/03/29 02:27:14;;;;;;;19.48;10.38;;;;;;;;;;4943245;29;20039;-68
2022/03/29 02:29:40;;;;;;;15.32;8.88;;;;;;;;;;4942827;29;20520;-69
2022/03/29 02:32:05;;;;;;;16.00;9.18;;;;;;;;;;4942735;29;20047;-68
2022/03/29 02:34:31;;;;;;;18.10;8.80;;;;;;;;;;4942030;28;20039;-69
2022/03/29 02:36:57;;;;;;;19.33;9.35;;;;;;;;;;4942675;28;20055;-69
2022/03/29 02:39:22;;;;;;;21.35;9.20;;;;;;;;;;4942741;29;20101;-69
2022/03/29 02:41:47;;;;;;;17.20;8.73;;;;;;;;;;4942868;29;20087;-69
2022/03/29 02:44:13;;;;;;;17.13;8.60;;;;;;;;;;4941625;29;20043;-68
2022/03/29 02:46:40;;;;;;;13.25;7.80;;;;;;;;;;4942817;28;20540;-68
2022/03/29 02:49:06;;;;;;;17.70;8.38;;;;;;;;;;4942452;28;20043;-68
2022/03/29 02:51:31;;;;;;;18.00;8.52;;;;;;;;;;4942849;29;20046;-67
2022/03/29 02:53:56;;;;;;;14.55;8.07;;;;;;;;;;4942887;28;20046;-67
2022/03/29 02:56:22;;;;;;;17.33;9.25;;;;;;;;;;4945560;28;20531;-67
2022/03/29 02:58:48;;;;;;;15.43;8.32;;;;;;;;;;4946147;28;20058;-68
2022/03/29 03:01:13;;;;;;;14.73;8.52;;;;;;;;;;4945993;29;20090;-68
2022/03/29 03:03:39;;;;;;;14.15;8.27;;;;;;;;;;4945875;29;20035;-68
2022/03/29 03:06:04;;;;;;;13.52;8.25;;;;;;;;;;4928556;29;20047;-68
2022/03/29 03:08:30;;;;;;;15.50;8.10;;;;;;;;;;4945048;28;20053;-68
2022/03/29 03:10:56;;;;;;;14.80;8.27;;;;;;;;;;4945842;28;20102;-68
2022/03/29 03:13:21;;;;;;;15.40;8.15;;;;;;;;;;4945940;29;20059;-68
2022/03/29 03:15:47;;;;;;;13.23;7.95;;;;;;;;;;4945834;29;20779;-69
2022/03/29 03:18:13;;;;;;;14.43;9.02;;;;;;;;;;4945183;28;20042;-68
2022/03/29 03:20:38;;;;;;;16.60;8.50;;;;;;;;;;4943257;28;20035;-67
2022/03/29 03:23:04;;;;;;;14.82;8.15;;;;;;;;;;4945339;28;20043;-68
2022/03/29 03:25:30;;;;;;;16.98;8.82;;;;;;;;;;4945331;28;20122;-69
2022/03/29 03:27:55;;;;;;;24.08;8.38;;;;;;;;;;4945589;29;20043;-69
2022/03/29 03:30:21;;;;;;;16.40;8.82;;;;;;;;;;4944567;28;20065;-68
2022/03/29 03:32:46;;;;;;;13.00;8.68;;;;;;;;;;4945606;28;20082;-68
2022/03/29 03:35:12;;;;;;;15.10;8.40;;;;;;;;;;4943441;28;20539;-68
2022/03/29 03:37:38;;;;;;;18.90;9.00;;;;;;;;;;4944817;28;20149;-68
2022/03/29 03:40:06;;;;;;;14.27;8.65;;;;;;;;;;4944239;28;20485;-68
2022/03/29 03:42:31;;;;;;;22.15;8.82;;;;;;;;;;4945155;28;20035;-68
2022/03/29 03:44:58;;;;;;;13.00;8.05;;;;;;;;;;4945166;29;20096;-68
2022/03/29 03:47:25;;;;;;;15.35;7.93;;;;;;;;;;4945039;29;20373;-69
2022/03/29 03:49:50;;;;;;;14.52;8.82;;;;;;;;;;4944757;29;20094;-68
2022/03/29 03:52:16;;;;;;;17.83;9.48;;;;;;;;;;4927805;29;20734;-68
2022/03/29 03:54:41;;;;;;;17.40;8.43;;;;;;;;;;4944787;28;20043;-68
2022/03/29 03:57:07;;;;;;;13.68;7.95;;;;;;;;;;4944642;29;20049;-68
2022/03/29 03:59:33;;;;;;;14.65;8.23;;;;;;;;;;4927861;29;20038;-68
2022/03/29 04:01:58;;;;;;;15.00;8.60;;;;;;;;;;4944036;28;20031;-68
2022/03/29 04:04:24;;;;;;;13.48;7.93;;;;;;;;;;4944488;28;20422;-68
2022/03/29 04:06:51;;;;;;;13.50;8.00;;;;;;;;;;4944051;28;20058;-68
2022/03/29 04:09:17;;;;;;;13.77;8.52;;;;;;;;;;4944836;29;20517;-68
2022/03/29 04:11:43;;;;;;;17.95;9.07;;;;;;;;;;4944446;29;20031;-68
2022/03/29 04:14:08;;;;;;;18.80;8.68;;;;;;;;;;4943426;28;20062;-68
2022/03/29 04:16:34;;;;;;;15.20;8.45;;;;;;;;;;4944799;28;20421;-67
2022/03/29 04:18:59;;;;;;;17.48;8.02;;;;;;;;;;4944636;29;20094;-68
2022/03/29 04:21:24;;;;;;;18.27;8.27;;;;;;;;;;4944958;29;20031;-68
2022/03/29 04:23:50;;;;;;;14.60;8.10;;;;;;;;;;4943572;28;20035;-68
2022/03/29 04:26:15;;;;;;;15.73;8.77;;;;;;;;;;4944561;28;20043;-68
2022/03/29 04:28:41;;;;;;;17.73;8.63;;;;;;;;;;4926915;29;20039;-68
2022/03/29 04:31:08;;;;;;;18.13;8.65;;;;;;;;;;4943698;29;20066;-68
2022/03/29 04:33:34;;;;;;;13.50;8.20;;;;;;;;;;4943460;29;20035;-68
2022/03/29 04:35:59;;;;;;;17.80;8.45;;;;;;;;;;4943680;28;20047;-68
2022/03/29 04:38:25;;;;;;;16.50;8.80;;;;;;;;;;4944362;28;20035;-68
2022/03/29 04:40:52;;;;;;;18.63;8.55;;;;;;;;;;4944150;29;20038;-67
2022/03/29 04:43:17;;;;;;;16.75;8.00;;;;;;;;;;4943760;29;20070;-68
2022/03/29 04:45:43;;;;;;;22.73;8.18;;;;;;;;;;4943422;29;20078;-67
2022/03/29 04:48:09;;;;;;;13.43;8.43;;;;;;;;;;4945666;28;20622;-67
2022/03/29 04:50:35;;;;;;;13.75;8.80;;;;;;;;;;4944126;29;20045;-68
2022/03/29 04:53:01;;;;;;;19.23;8.82;;;;;;;;;;4944318;29;20023;-69
2022/03/29 04:55:26;;;;;;;18.40;8.45;;;;;;;;;;4943721;29;21126;-69
2022/03/29 04:57:52;;;;;;;17.73;8.68;;;;;;;;;;4943125;28;20035;-70
2022/03/29 05:00:20;;;;;;;15.10;8.48;;;;;;;;;;4943935;28;20075;-69
2022/03/29 05:02:47;;;;;;;18.50;8.98;;;;;;;;;;4943592;29;20050;-69
2022/03/29 05:05:13;;;;;;;17.70;8.32;;;;;;;;;;4943536;29;20660;-69
2022/03/29 05:07:42;;;;;;;21.45;8.30;;;;;;;;;;4943020;29;20099;-69
2022/03/29 05:10:08;;;;;;;17.35;9.15;;;;;;;;;;4943874;28;20042;-70
2022/03/29 05:12:48;;;;;;;16.98;8.88;;;;;;;;;;4943745;29;20050;-69
2022/03/29 05:15:16;;;;;;;13.00;8.27;;;;;;;;;;4942760;29;20035;-69
2022/03/29 05:17:42;;;;;;;14.73;9.07;;;;;;;;;;4941796;28;20039;-69
2022/03/29 05:20:09;;;;;;;15.15;9.05;;;;;;;;;;4941253;28;20078;-68
2022/03/29 05:22:42;;;;;;;16.83;8.18;;;;;;;;;;4942251;28;20171;-68
2022/03/29 05:25:08;;;;;;;23.63;9.63;;;;;;;;;;4941497;29;20531;-68
2022/03/29 05:27:34;;;;;;;17.00;9.15;;;;;;;;;;4941849;29;20416;-68
2022/03/29 05:29:59;;;;;;;16.05;8.32;;;;;;;;;;4940732;28;20054;-68
2022/03/29 05:32:25;;;;;;;19.95;9.02;;;;;;;;;;4942299;28;20027;-68
2022/03/29 05:34:50;;;;;;;15.63;8.68;;;;;;;;;;4926058;29;20532;-68
2022/03/29 05:37:16;;;;;;;16.42;9.15;;;;;;;;;;4943636;29;20407;-69
2022/03/29 05:39:43;;;;;;;15.20;8.77;;;;;;;;;;4943460;29;20181;-68
2022/03/29 05:42:12;;;;;;;15.90;8.80;;;;;;;;;;4942524;28;20062;-68
2022/03/29 05:44:38;;;;;;;20.40;8.90;;;;;;;;;;4943165;28;20043;-68
2022/03/29 05:49:49;;;;;;;15.38;8.48;;;;;;;;;;4943330;29;20043;-68
2022/03/29 05:52:14;;;;;;;17.58;7.82;;;;;;;;;;4942910;28;20049;-68
2022/03/29 05:54:41;;;;;;;14.55;8.50;;;;;;;;;;4939921;28;20031;-68
2022/03/29 05:57:07;;;;;;;14.48;8.65;;;;;;;;;;4942722;29;20047;-68
2022/03/29 05:59:34;;;;;;;15.70;8.88;;;;;;;;;;4943181;29;20043;-68
2022/03/29 06:02:04;;;;;;;15.57;8.68;;;;;;;;;;4942954;29;20551;-68
2022/03/29 06:04:31;;;;;;;14.65;8.63;;;;;;;;;;4941720;28;20139;-69
2022/03/29 06:06:56;;;;;;;16.58;8.00;;;;;;;;;;4942492;28;20150;-69
2022/03/29 06:09:22;;;;;;;15.70;9.38;;;;;;;;;;4941795;29;20043;-69
2022/03/29 06:11:48;;;;;;;19.10;8.75;;;;;;;;;;4942973;29;20039;-69
2022/03/29 06:14:14;;;;;;;17.40;8.50;;;;;;;;;;4942003;28;20105;-68
2022/03/29 06:16:41;;;;;;;15.77;8.95;;;;;;;;;;4943229;28;20039;-69
2022/03/29 06:19:07;;;;;;;14.90;8.77;;;;;;;;;;4942557;29;20035;-70
2022/03/29 06:21:34;;;;;;;27.38;8.20;;;;;;;;;;4942940;29;20110;-68
2022/03/29 06:24:02;;;;;;;29.45;9.15;;;;;;;;;;4942913;29;20054;-68
2022/03/29 06:26:28;;;;;;;36.65;9.20;;;;;;;;;;4942168;28;20043;-67
2022/03/29 06:28:53;;;;;;;39.70;9.63;;;;;;;;;;4943267;28;20047;-68
2022/03/29 06:31:21;;;;;;;38.13;10.60;;;;;;;;;;4946766;29;20030;-67
2022/03/29 06:33:47;;;;;;;33.47;10.40;;;;;;;;;;4946525;29;20035;-68
2022/03/29 06:36:12;;;;;;;21.73;9.50;;;;;;;;;;4946131;28;20045;-69
2022/03/29 06:38:37;;;;;;;14.60;8.68;;;;;;;;;;4946219;28;20040;-69
2022/03/29 06:41:03;;;;;;;15.93;8.27;;;;;;;;;;4946489;29;20043;-70
2022/03/29 06:43:28;;;;;;;18.08;8.85;;;;;;;;;;4946627;29;20053;-70
2022/03/29 06:45:55;;;;;;;21.30;9.10;;;;;;;;;;4946265;29;20058;-69
2022/03/29 06:48:21;;;;;;;24.25;8.95;;;;;;;;;;4945599;28;20122;-69
2022/03/29 06:50:46;;;;;;;14.48;8.55;;;;;;;;;;4945508;28;20039;-69
2022/03/29 06:53:12;;;;;;;24.02;8.93;;;;;;;;;;4929320;29;20053;-69
2022/03/29 06:55:37;;;;;;;15.98;9.05;;;;;;;;;;4946481;29;20039;-69
2022/03/29 06:58:03;;;;;;;16.02;8.90;;;;;;;;;;4946125;28;20640;-69
2022/03/29 07:00:29;;;;;;;14.90;8.75;;;;;;;;;;4945630;28;20038;-69
2022/03/29 07:02:54;;;;;;;15.48;8.20;;;;;;;;;;4946246;29;20031;-69
2022/03/29 07:05:20;;;;;;;11.27;7.97;;;;;;;;;;4946068;29;20519;-69
2022/03/29 07:07:45;;;;;;;17.63;8.77;;;;;;;;;;4946293;29;20546;-69
2022/03/29 07:12:57;;;;;;;33.40;8.88;;;;;;;;;;4946103;28;20097;-70
2022/03/29 07:15:24;;;;;;;17.38;8.32;;;;;;;;;;4945736;29;20031;-70
2022/03/29 07:17:50;;;;;;;21.65;9.43;;;;;;;;;;4946575;29;20040;-69
2022/03/29 07:20:16;;;;;;;20.30;8.88;;;;;;;;;;4946263;28;20516;-68
2022/03/29 07:22:43;;;;;;;15.95;8.75;;;;;;;;;;4945910;28;20046;-69
2022/03/29 07:25:09;;;;;;;29.90;9.52;;;;;;;;;;4945785;29;20039;-69
2022/03/29 07:27:35;;;;;;;15.88;8.50;;;;;;;;;;4946131;29;20070;-69
2022/03/29 07:30:03;;;;;;;18.92;9.13;;;;;;;;;;4945661;28;20441;-70
2022/03/29 07:32:28;;;;;;;26.27;8.63;;;;;;;;;;4944955;28;20035;-69
2022/03/29 07:34:54;;;;;;;32.15;9.35;;;;;;;;;;4945154;28;20061;-69
2022/03/29 07:37:21;;;;;;;21.83;9.10;;;;;;;;;;4945656;29;20019;-69
2022/03/29 07:39:47;;;;;;;36.42;9.30;;;;;;;;;;4945565;28;20039;-70
2022/03/29 07:42:12;;;;;;;23.70;9.82;;;;;;;;;;4943103;28;20046;-69
2022/03/29 07:44:38;;;;;;;13.40;8.65;;;;;;;;;;4945149;28;20093;-71
2022/03/29 07:47:04;;;;;;;15.98;9.32;;;;;;;;;;4945229;29;20047;-70
2022/03/29 07:49:29;;;;;;;15.45;8.35;;;;;;;;;;4945614;29;20031;-71
2022/03/29 07:51:58;;;;;;;12.98;8.70;;;;;;;;;;4945453;29;20046;-70
2022/03/29 07:54:23;;;;;;;22.45;9.18;;;;;;;;;;4943953;28;20039;-68
2022/03/29 07:56:49;;;;;;;20.17;9.35;;;;;;;;;;4944917;28;20054;-70
2022/03/29 07:59:14;;;;;;;16.90;9.15;;;;;;;;;;4945311;29;20023;-70
2022/03/29 08:01:40;;;;;;;18.52;8.60;;;;;;;;;;4944792;29;20031;-71
2022/03/29 08:04:05;;;;;;;16.75;9.27;;;;;;;;;;4943602;28;20421;-68
2022/03/29 08:06:31;;;;;;;23.08;9.60;;;;;;;;;;4945253;28;20039;-69
2022/03/29 08:08:56;;;;;;;16.75;9.27;;;;;;;;;;4945009;29;20070;-71
2022/03/29 08:11:22;;;;;;;21.27;10.15;;;;;;;;;;4945275;29;20113;-69
2022/03/29 08:13:49;;;;;;;16.35;8.75;;;;;;;;;;4944591;29;20071;-69
2022/03/29 08:16:15;;;;;;;30.17;10.05;;;;;;;;;;4943636;28;20071;-68
2022/03/29 08:18:40;;;;;;;40.00;10.90;;;;;;;;;;4944935;28;20027;-69
2022/03/29 08:21:48;;;;;;;34.00;10.30;;;;;;;;;;4944681;29;20046;-69
2022/03/29 08:23:52;;;;;;;23.48;9.73;;;;;;;;;;4944601;29;20069;-70
2022/03/29 08:26:17;;;;;;;31.23;9.73;;;;;;;;;;4944038;28;20078;-68
2022/03/29 08:28:43;;;;;;;22.45;10.43;;;;;;;;;;4944849;28;20039;-69
2022/03/29 08:31:08;;;;;;;26.35;10.57;;;;;;;;;;4944211;29;20043;-69
2022/03/29 08:33:34;;;;;;;28.13;10.60;;;;;;;;;;4944928;29;20038;-69
2022/03/29 08:35:59;;;;;;;22.10;9.95;;;;;;;;;;4944243;29;20121;-69
2022/03/29 08:38:26;;;;;;;24.42;10.05;;;;;;;;;;4943869;28;20031;-70
2022/03/29 08:40:56;;;;;;;22.88;10.40;;;;;;;;;;4944462;28;20041;-70
2022/03/29 08:43:26;;;;;;;29.67;10.43;;;;;;;;;;4944710;29;20400;-69
2022/03/29 08:45:52;;;;;;;37.05;9.80;;;;;;;;;;4943944;29;20042;-69
2022/03/29 08:48:23;;;;;;;34.80;10.60;;;;;;;;;;4943300;28;20481;-69
2022/03/29 08:50:51;;;;;;;15.77;8.47;;;;;;;;;;4944053;28;20067;-69
2022/03/29 08:53:17;;;;;;;20.13;9.55;;;;;;;;;;4944103;28;20501;-70
2022/03/29 08:55:44;;;;;;;20.60;9.27;;;;;;;;;;4943803;29;20077;-72
2022/03/29 08:58:11;;;;;;;27.08;9.63;;;;;;;;;;4942952;29;20037;-69
2022/03/29 09:00:36;;;;;;;18.23;9.20;;;;;;;;;;4943710;28;20034;-70
2022/03/29 09:03:02;;;;;;;20.40;9.30;;;;;;;;;;4943997;28;20054;-71
2022/03/29 09:05:29;;;;;;;14.68;9.27;;;;;;;;;;4943919;29;20109;-71
2022/03/29 09:08:11;;;;;;;13.40;8.60;;;;;;;;;;4944221;29;20035;-70
2022/03/29 09:10:49;;;;;;;22.50;10.13;;;;;;;;;;4943386;28;20182;-71
2022/03/29 09:13:24;;;;;;;19.58;9.15;;;;;;;;;;4943853;28;20043;-71
2022/03/29 09:15:52;;;;;;;16.05;8.40;;;;;;;;;;4945400;29;20051;-72
2022/03/29 09:18:18;;;;;;;22.00;7.95;;;;;;;;;;4928798;29;20039;-70
2022/03/29 09:20:45;;;;;;;18.85;8.57;;;;;;;;;;4945253;29;20095;-73
2022/03/29 09:23:18;;;;;;;16.70;7.93;;;;;;;;;;4943573;28;20078;-70
2022/03/29 09:25:49;;;;;;;11.77;7.78;;;;;;;;;;4943732;29;20092;-71
2022/03/29 09:28:17;;;;;;;17.70;8.05;;;;;;;;;;4944029;29;20071;-69
2022/03/29 09:30:49;;;;;;;46.08;9.73;;;;;;;;;;4943532;29;20042;-70
2022/03/29 09:33:16;;;;;;;15.32;8.88;;;;;;;;;;4943039;28;20031;-70
2022/03/29 09:36:07;;;;;;;18.75;8.52;;;;;;;;;;4943445;28;20130;-70
2022/03/29 09:38:39;;;;;;;17.02;8.05;;;;;;;;;;4943765;29;20051;-70
2022/03/29 09:41:27;;;;;;;13.52;8.00;;;;;;;;;;4943276;28;20043;-70
2022/03/29 09:43:59;;;;;;;13.07;7.88;;;;;;;;;;4942618;28;20134;-70
2022/03/29 09:46:24;;;;;;;12.63;7.95;;;;;;;;;;4943126;28;20039;-70
2022/03/29 09:48:50;;;;;;;14.18;7.40;;;;;;;;;;4943422;29;20066;-69
2022/03/29 09:51:18;;;;;;;15.52;7.13;;;;;;;;;;4943020;29;20027;-70
2022/03/29 09:53:50;;;;;;;15.55;8.02;;;;;;;;;;4942940;29;20035;-70
2022/03/29 09:56:24;;;;;;;13.43;6.80;;;;;;;;;;4943175;28;20809;-70
2022/03/29 09:59:10;;;;;;;11.27;6.53;;;;;;;;;;4943220;29;20046;-69
2022/03/29 10:01:52;;;;;;;12.30;7.20;;;;;;;;;;4942628;29;20034;-71
2022/03/29 10:04:19;;;;;;;19.55;7.55;;;;;;;;;;4941546;29;20039;-69
2022/03/29 10:06:47;;;;;;;14.82;8.40;;;;;;;;;;4943109;28;20090;-70
2022/03/29 10:09:27;;;;;;;13.02;7.00;;;;;;;;;;4943139;28;20031;-71
2022/03/29 10:11:57;;;;;;;11.73;6.75;;;;;;;;;;4942814;29;20043;-69
2022/03/29 10:14:25;;;;;;;14.95;7.38;;;;;;;;;;4942796;29;20047;-69
2022/03/29 10:16:55;;;;;;;12.63;7.80;;;;;;;;;;4942398;28;20114;-70
2022/03/29 10:19:21;;;;;;;13.95;8.13;;;;;;;;;;4943177;28;20043;-71
2022/03/29 10:21:47;;;;;;;13.57;7.15;;;;;;;;;;4942864;29;20099;-70
2022/03/29 10:24:13;;;;;;;15.45;7.65;;;;;;;;;;4942589;29;20074;-70
2022/03/29 10:26:42;;;;;;;10.77;7.22;;;;;;;;;;4925341;29;20043;-70
2022/03/29 10:29:08;;;;;;;13.18;7.40;;;;;;;;;;4942714;28;20054;-69
2022/03/29 10:31:47;;;;;;;14.15;7.93;;;;;;;;;;4942897;29;20957;-69
2022/03/29 10:34:20;;;;;;;12.38;5.72;;;;;;;;;;4942298;29;20665;-70
2022/03/29 10:37:18;;;;;;;14.32;7.32;;;;;;;;;;4943012;29;20062;-70
2022/03/29 10:39:49;;;;;;;17.95;7.65;;;;;;;;;;4942398;28;20038;-69
2022/03/29 10:42:28;;;;;;;11.23;7.32;;;;;;;;;;4942157;29;20122;-70
2022/03/29 10:45:01;;;;;;;20.10;7.82;;;;;;;;;;4942315;29;20038;-70
2022/03/29 10:47:29;;;;;;;11.90;7.13;;;;;;;;;;4942847;29;20035;-68
2022/03/29 10:49:54;;;;;;;10.93;6.80;;;;;;;;;;4941793;28;20160;-69
2022/03/29 10:52:20;;;;;;;12.30;7.25;;;;;;;;;;4942861;28;20126;-69
2022/03/29 10:54:46;;;;;;;11.98;7.47;;;;;;;;;;4941963;29;20038;-69
2022/03/29 10:57:20;;;;;;;8.30;5.15;;;;;;;;;;4942290;29;20121;-69
2022/03/29 10:59:58;;;;;;;12.68;6.78;;;;;;;;;;4942314;28;20120;-70
2022/03/29 11:02:25;;;;;;;13.88;8.23;;;;;;;;;;4940778;28;20107;-70
2022/03/29 11:05:10;;;;;;;10.82;7.18;;;;;;;;;;4938526;28;20039;-70
2022/03/29 11:07:36;;;;;;;13.93;6.10;;;;;;;;;;4940707;28;20040;-69
2022/03/29 11:10:21;;;;;;;20.45;8.10;;;;;;;;;;4940235;28;20126;-69
2022/03/29 11:12:54;;;;;;;11.50;7.43;;;;;;;;;;4941321;28;20044;-71
2022/03/29 11:15:25;;;;;;;11.77;7.28;;;;;;;;;;4940693;28;20051;-71
2022/03/29 11:17:52;;;;;;;11.00;7.32;;;;;;;;;;4945104;28;20035;-71
2022/03/29 11:20:32;;;;;;;12.80;6.82;;;;;;;;;;4945573;29;20122;-68
2022/03/29 11:23:04;;;;;;;11.20;6.20;;;;;;;;;;4945729;29;20050;-70
2022/03/29 11:25:37;;;;;;;14.10;8.18;;;;;;;;;;4945550;29;20051;-69
2022/03/29 11:28:08;;;;;;;12.18;7.07;;;;;;;;;;4944646;28;20047;-69
2022/03/29 11:30:34;;;;;;;14.00;8.07;;;;;;;;;;4945629;28;20035;-69
2022/03/29 11:33:01;;;;;;;13.82;7.43;;;;;;;;;;4945530;29;20051;-71
2022/03/29 11:35:27;;;;;;;19.92;7.78;;;;;;;;;;4945382;29;20070;-70
2022/03/29 11:37:53;;;;;;;16.17;7.40;;;;;;;;;;4944539;28;20035;-71
2022/03/29 11:40:20;;;;;;;14.10;7.25;;;;;;;;;;4945416;28;20054;-70
2022/03/29 11:42:52;;;;;;;10.13;6.43;;;;;;;;;;4945705;29;20741;-71
2022/03/29 11:45:23;;;;;;;11.65;8.18;;;;;;;;;;4945166;29;20038;-70
2022/03/29 11:47:53;;;;;;;14.13;7.03;;;;;;;;;;4945258;29;20077;-70
2022/03/29 11:50:28;;;;;;;18.48;6.97;;;;;;;;;;4927442;29;20051;-71
2022/03/29 11:52:53;;;;;;;10.88;5.68;;;;;;;;;;4945615;28;20042;-70
2022/03/29 11:55:19;;;;;;;11.98;6.38;;;;;;;;;;4944991;29;20106;-70
2022/03/29 11:57:44;;;;;;;15.20;7.55;;;;;;;;;;4945669;29;20058;-70
2022/03/29 12:00:24;;;;;;;17.05;6.72;;;;;;;;;;4943820;28;20712;-71
2022/03/29 12:02:51;;;;;;;8.52;5.15;;;;;;;;;;4944569;28;20059;-69
2022/03/29 12:05:24;;;;;;;8.60;4.53;;;;;;;;;;4939933;28;20046;-69
2022/03/29 12:07:56;;;;;;;12.77;6.57;;;;;;;;;;4939209;28;20047;-70
2022/03/29 12:10:43;;;;;;;12.00;5.07;;;;;;;;;;4937993;28;20039;-70
2022/03/29 12:13:16;;;;;;;21.20;6.85;;;;;;;;;;4941753;28;20050;-69
2022/03/29 12:15:41;;;;;;;9.77;5.57;;;;;;;;;;4941444;28;20063;-71
2022/03/29 12:20:50;;;;;;;7.10;4.72;;;;;;;;;;4944337;29;20777;-70
2022/03/29 12:23:17;;;;;;;10.15;5.38;;;;;;;;;;4943922;29;20038;-70
2022/03/29 12:25:44;;;;;;;15.73;6.07;;;;;;;;;;4944438;29;20039;-71
2022/03/29 12:28:13;;;;;;;10.32;4.45;;;;;;;;;;4942665;28;20038;-71
2022/03/29 12:30:39;;;;;;;6.78;5.07;;;;;;;;;;4944340;28;20046;-74
2022/03/29 12:33:05;;;;;;;16.70;5.30;;;;;;;;;;4944690;29;20553;-72
2022/03/29 12:35:30;;;;;;;13.07;5.75;;;;;;;;;;4944456;29;20035;-69
2022/03/29 12:38:09;;;;;;;12.63;4.53;;;;;;;;;;4943817;28;20397;-69
2022/03/29 12:40:35;;;;;;;9.18;4.53;;;;;;;;;;4943487;28;20118;-71
2022/03/29 12:43:02;;;;;;;8.95;4.00;;;;;;;;;;4943596;29;20043;-71
2022/03/29 12:45:28;;;;;;;16.48;4.18;;;;;;;;;;4943955;29;20157;-71
2022/03/29 12:47:55;;;;;;;5.97;4.22;;;;;;;;;;4942305;29;20118;-69
2022/03/29 12:50:21;;;;;;;9.50;4.63;;;;;;;;;;4942405;28;20086;-70
2022/03/29 12:52:47;;;;;;;12.20;5.03;;;;;;;;;;4943703;28;20042;-70
2022/03/29 12:55:18;;;;;;;11.35;5.22;;;;;;;;;;4942820;29;20142;-70
2022/03/29 12:57:45;;;;;;;10.80;5.38;;;;;;;;;;4944467;29;20428;-70
2022/03/29 13:00:14;;;;;;;7.07;4.63;;;;;;;;;;4942206;28;20038;-70
2022/03/29 13:02:49;;;;;;;11.25;5.10;;;;;;;;;;4943343;28;20130;-70
2022/03/29 13:05:18;;;;;;;11.40;5.07;;;;;;;;;;4943757;29;20452;-69
2022/03/29 13:07:48;;;;;;;18.92;5.07;;;;;;;;;;4943941;29;20065;-68
2022/03/29 13:10:18;;;;;;;62.97;8.73;;;;;;;;;;4943529;28;20035;-69
2022/03/29 13:13:21;;;;;;;14.75;5.05;;;;;;;;;;4944718;28;20053;-68
2022/03/29 13:16:06;;;;;;;6.75;4.05;;;;;;;;;;4911293;29;20058;-71
2022/03/29 13:19:00;;;;;;;9.80;5.95;;;;;;;;;;4944082;29;20412;-70
2022/03/29 13:21:27;;;;;;;8.25;4.35;;;;;;;;;;4939287;29;20063;-70
2022/03/29 13:24:14;;;;;;;11.43;5.43;;;;;;;;;;4943524;28;20035;-70
2022/03/29 13:26:41;;;;;;;11.30;5.85;;;;;;;;;;4943601;29;20026;-69
2022/03/29 13:29:08;;;;;;;12.75;6.13;;;;;;;;;;4943457;29;20089;-69
2022/03/29 13:31:34;;;;;;;12.52;4.47;;;;;;;;;;4943624;29;20090;-69
2022/03/29 13:34:03;;;;;;;8.68;4.90;;;;;;;;;;4943344;28;20047;-69
2022/03/29 13:36:28;;;;;;;9.98;5.45;;;;;;;;;;4942860;28;20094;-69
2022/03/29 13:38:56;;;;;;;14.07;5.25;;;;;;;;;;4942350;28;20043;-71
2022/03/29 13:41:23;;;;;;;11.07;5.32;;;;;;;;;;4943627;29;20038;-69
2022/03/29 13:43:49;;;;;;;19.02;6.10;;;;;;;;;;4925561;28;20039;-70
2022/03/29 13:46:15;;;;;;;14.65;5.60;;;;;;;;;;4943141;28;20039;-71
2022/03/29 13:48:41;;;;;;;12.73;6.78;;;;;;;;;;4943441;29;20138;-70
2022/03/29 13:51:12;;;;;;;12.95;6.57;;;;;;;;;;4942075;29;20043;-70
2022/03/29 13:53:38;;;;;;;10.00;5.53;;;;;;;;;;4940847;29;20046;-68
2022/03/29 13:56:05;;;;;;;10.75;5.82;;;;;;;;;;4940384;28;20043;-69
2022/03/29 13:58:31;;;;;;;15.52;6.15;;;;;;;;;;4941035;28;20461;-70
2022/03/29 14:00:59;;;;;;;11.52;4.97;;;;;;;;;;4941529;29;20485;-69
2022/03/29 14:03:24;;;;;;;12.80;4.78;;;;;;;;;;4940622;29;20047;-69
2022/03/29 14:05:50;;;;;;;11.88;5.90;;;;;;;;;;4940325;28;20054;-67
2022/03/29 14:08:16;;;;;;;11.38;6.15;;;;;;;;;;4941683;28;20565;-69
2022/03/29 14:10:42;;;;;;;7.57;5.50;;;;;;;;;;4942081;29;20035;-69
2022/03/29 14:13:09;;;;;;;7.70;5.22;;;;;;;;;;4941372;29;20142;-69
2022/03/29 14:15:37;;;;;;;14.60;6.43;;;;;;;;;;4942204;29;20591;-69
2022/03/29 14:18:07;;;;;;;18.02;6.40;;;;;;;;;;4940959;28;20050;-69
2022/03/29 14:20:35;;;;;;;10.80;6.30;;;;;;;;;;4941250;28;20043;-69
2022/03/29 14:23:00;;;;;;;45.88;6.68;;;;;;;;;;4941847;29;20047;-70
2022/03/29 14:25:26;;;;;;;14.13;5.82;;;;;;;;;;4941531;29;20098;-70
2022/03/29 14:27:52;;;;;;;29.08;6.15;;;;;;;;;;4939882;28;20036;-69
2022/03/29 14:30:18;;;;;;;10.50;5.43;;;;;;;;;;4941320;28;20038;-69
2022/03/29 14:32:44;;;;;;;12.25;5.30;;;;;;;;;;4942388;29;20136;-69
2022/03/29 14:35:10;;;;;;;15.65;6.00;;;;;;;;;;4940970;29;20503;-69
2022/03/29 14:37:38;;;;;;;12.23;4.82;;;;;;;;;;4923762;29;20046;-70
2022/03/29 14:40:10;;;;;;;10.00;5.50;;;;;;;;;;4940252;28;20038;-69
2022/03/29 14:42:37;;;;;;;13.20;5.43;;;;;;;;;;4941941;28;20197;-69
2022/03/29 14:45:03;;;;;;;9.20;5.68;;;;;;;;;;4941366;29;20070;-70
2022/03/29 14:47:29;;;;;;;15.52;5.97;;;;;;;;;;4941197;29;20070;-69